PWSweather.com
Personal Weather Stations
Station Observations
SAGINAW
Brevator Township, Saginaw, MN 55779

Brevator TownshipSaginaw, MN 55779

Lat: 46.845672, Lon: -92.469164

Elevation: 1332

Station Type: Davis Vantage Vue

http://saginawmnwx.bplaced.net/index.php

Latest ConditionsUpdated 5:20:00 PM CDT Thursday, Jul 18, 2019
Currently Today's Max Today's Min Today's Average
Temperature 85.3°F29.6°C 85.3°F29.6°C 60.5°F15.8°C 70.4°F21.3°C
Dew Point 70.3°F21.3°C 73.8°F23.2°C 59.1°F15.1°C 65.4°F18.6°C
Winds 2.0 mph SW3.2 kmh SW 7.0 mph -11.3 kmh - - 1.5 mph 2.4 kmh
Wind Gusts 6.0 mph9.7 kmh 15.0 mph24.1 kmh - -
Humidity 61% 96% 58% 86%
Pressure 29.56 in1001.0 mb 29.69 in1005.4 mb 29.55 in1000.7 mb -
Precipitation - 0.06 in1.5 mm - -
Hour Temp Dew Point Humidity Winds Wind Gusts Pressure Precip Precip Rate Daily Precip Total
05:20 PM 85.3°F29.6°C 70.3°F21.3°C 61% 2.0 mph SW3.2 kmh SW 6.0 mph9.7 kmh 29.56 in1001.0 mb 0.00 in0.0 mm 0.00 in0.0 mm 0.06 in1.5 mm
05:10 PM 85.0°F29.4°C 69.6°F20.9°C 60% 2.0 mph N3.2 kmh N 8.0 mph12.9 kmh 29.56 in1001.0 mb 0.00 in0.0 mm 0.00 in0.0 mm 0.06 in1.5 mm
05:00 PM 84.5°F29.2°C 70.0°F21.1°C 62% 2.0 mph S3.2 kmh S 5.0 mph8.0 kmh 29.56 in1001.0 mb 0.00 in0.0 mm 0.00 in0.0 mm 0.06 in1.5 mm
04:50 PM 84.1°F28.9°C 68.2°F20.1°C 59% 1.0 mph SW1.6 kmh SW 8.0 mph12.9 kmh 29.56 in1001.0 mb 0.00 in0.0 mm 0.00 in0.0 mm 0.06 in1.5 mm
04:40 PM 82.8°F28.2°C 67.5°F19.7°C 60% 1.0 mph ESE1.6 kmh ESE 4.0 mph6.4 kmh 29.56 in1001.0 mb 0.00 in0.0 mm 0.00 in0.0 mm 0.06 in1.5 mm
04:30 PM 82.5°F28.1°C 67.2°F19.6°C 60% 2.0 mph NW3.2 kmh NW 6.0 mph9.7 kmh 29.56 in1001.0 mb 0.00 in0.0 mm 0.00 in0.0 mm 0.06 in1.5 mm
04:20 PM 84.1°F28.9°C 67.7°F19.8°C 58% 2.0 mph S3.2 kmh S 7.0 mph11.3 kmh 29.56 in1001.0 mb 0.00 in0.0 mm 0.00 in0.0 mm 0.06 in1.5 mm
04:10 PM 84.5°F29.2°C 68.1°F20.1°C 58% 2.0 mph ENE3.2 kmh ENE 8.0 mph12.9 kmh 29.56 in1001.0 mb 0.00 in0.0 mm 0.00 in0.0 mm 0.06 in1.5 mm
04:00 PM 83.8°F28.8°C 68.4°F20.2°C 60% 1.0 mph NE1.6 kmh NE 4.0 mph6.4 kmh 29.56 in1001.0 mb 0.00 in0.0 mm 0.00 in0.0 mm 0.06 in1.5 mm
03:50 PM 84.3°F29.1°C 69.4°F20.8°C 61% 2.0 mph NNE3.2 kmh NNE 5.0 mph8.0 kmh 29.56 in1001.0 mb 0.00 in0.0 mm 0.00 in0.0 mm 0.06 in1.5 mm
03:40 PM 84.0°F28.9°C 68.1°F20.1°C 59% 2.0 mph SSW3.2 kmh SSW 8.0 mph12.9 kmh 29.56 in1001.0 mb 0.00 in0.0 mm 0.00 in0.0 mm 0.06 in1.5 mm
03:30 PM 83.5°F28.6°C 69.1°F20.6°C 62% 2.0 mph SSW3.2 kmh SSW 8.0 mph12.9 kmh 29.55 in1000.7 mb 0.00 in0.0 mm 0.00 in0.0 mm 0.06 in1.5 mm
03:20 PM 83.7°F28.7°C 67.4°F19.7°C 58% 4.0 mph SSW6.4 kmh SSW 10.0 mph16.1 kmh 29.56 in1001.0 mb 0.00 in0.0 mm 0.00 in0.0 mm 0.06 in1.5 mm
03:10 PM 84.4°F29.1°C 70.9°F21.6°C 64% 4.0 mph SSW6.4 kmh SSW 10.0 mph16.1 kmh 29.56 in1001.0 mb 0.00 in0.0 mm 0.00 in0.0 mm 0.06 in1.5 mm
03:00 PM 83.5°F28.6°C 70.0°F21.1°C 64% 5.0 mph SSW8.0 kmh SSW 12.0 mph19.3 kmh 29.56 in1001.0 mb 0.00 in0.0 mm 0.00 in0.0 mm 0.06 in1.5 mm
02:50 PM 83.9°F28.8°C 70.9°F21.6°C 65% 6.0 mph SSW9.7 kmh SSW 13.0 mph20.9 kmh 29.56 in1001.0 mb 0.00 in0.0 mm 0.00 in0.0 mm 0.06 in1.5 mm
02:40 PM 83.3°F28.5°C 70.8°F21.6°C 66% 7.0 mph SSW11.3 kmh SSW 15.0 mph24.1 kmh 29.56 in1001.0 mb 0.00 in0.0 mm 0.00 in0.0 mm 0.06 in1.5 mm
02:30 PM 83.1°F28.4°C 69.7°F20.9°C 64% 5.0 mph SSW8.0 kmh SSW 11.0 mph17.7 kmh 29.57 in1001.4 mb 0.00 in0.0 mm 0.00 in0.0 mm 0.06 in1.5 mm
02:10 PM 82.4°F28.0°C 70.3°F21.3°C 67% 4.0 mph SSW6.4 kmh SSW 11.0 mph17.7 kmh 29.58 in1001.7 mb 0.00 in0.0 mm 0.00 in0.0 mm 0.06 in1.5 mm
02:00 PM 82.7°F28.2°C 70.2°F21.2°C 66% 3.0 mph SSW4.8 kmh SSW 8.0 mph12.9 kmh 29.58 in1001.7 mb 0.00 in0.0 mm 0.00 in0.0 mm 0.06 in1.5 mm
01:50 PM 83.1°F28.4°C 71.9°F22.2°C 69% 3.0 mph SSW4.8 kmh SSW 12.0 mph19.3 kmh 29.57 in1001.4 mb 0.00 in0.0 mm 0.00 in0.0 mm 0.06 in1.5 mm
01:40 PM 82.6°F28.1°C 70.5°F21.4°C 67% 3.0 mph SW4.8 kmh SW 13.0 mph20.9 kmh 29.57 in1001.4 mb 0.00 in0.0 mm 0.00 in0.0 mm 0.06 in1.5 mm
01:30 PM 82.1°F27.8°C 73.8°F23.2°C 76% 2.0 mph SW3.2 kmh SW 8.0 mph12.9 kmh 29.58 in1001.7 mb 0.00 in0.0 mm 0.00 in0.0 mm 0.06 in1.5 mm
01:20 PM 81.4°F27.4°C 72.3°F22.4°C 74% 2.0 mph SSW3.2 kmh SSW 6.0 mph9.7 kmh 29.58 in1001.7 mb 0.00 in0.0 mm 0.00 in0.0 mm 0.06 in1.5 mm
01:10 PM 80.4°F26.9°C 72.5°F22.5°C 77% 1.0 mph SSW1.6 kmh SSW 4.0 mph6.4 kmh 29.58 in1001.7 mb 0.00 in0.0 mm 0.00 in0.0 mm 0.06 in1.5 mm
01:00 PM 80.1°F26.7°C 71.1°F21.7°C 74% 4.0 mph SSW6.4 kmh SSW 9.0 mph14.5 kmh 29.59 in1002.0 mb 0.00 in0.0 mm 0.00 in0.0 mm 0.06 in1.5 mm
12:50 PM 80.5°F26.9°C 71.8°F22.1°C 75% 3.0 mph S4.8 kmh S 8.0 mph12.9 kmh 29.59 in1002.0 mb 0.00 in0.0 mm 0.00 in0.0 mm 0.06 in1.5 mm
12:40 PM 79.8°F26.6°C 70.8°F21.6°C 74% 4.0 mph S6.4 kmh S 8.0 mph12.9 kmh 29.59 in1002.0 mb 0.00 in0.0 mm 0.00 in0.0 mm 0.06 in1.5 mm
12:30 PM 81.1°F27.3°C 70.4°F21.3°C 70% 5.0 mph S8.0 kmh S 12.0 mph19.3 kmh 29.59 in1002.0 mb 0.00 in0.0 mm 0.00 in0.0 mm 0.06 in1.5 mm
12:20 PM 81.5°F27.5°C 72.0°F22.2°C 73% 5.0 mph SSW8.0 kmh SSW 10.0 mph16.1 kmh 29.59 in1002.0 mb 0.00 in0.0 mm 0.00 in0.0 mm 0.06 in1.5 mm
12:10 PM 80.5°F26.9°C 71.0°F21.7°C 73% 5.0 mph S8.0 kmh S 10.0 mph16.1 kmh 29.59 in1002.0 mb 0.00 in0.0 mm 0.00 in0.0 mm 0.06 in1.5 mm
12:00 PM 80.2°F26.8°C 71.6°F22.0°C 75% 3.0 mph SSW4.8 kmh SSW 8.0 mph12.9 kmh 29.60 in1002.4 mb 0.00 in0.0 mm 0.00 in0.0 mm 0.06 in1.5 mm
11:50 AM 79.5°F26.4°C 72.8°F22.7°C 80% 4.0 mph S6.4 kmh S 8.0 mph12.9 kmh 29.60 in1002.4 mb 0.00 in0.0 mm 0.00 in0.0 mm 0.06 in1.5 mm
11:40 AM 78.5°F25.8°C 72.2°F22.3°C 81% 5.0 mph SSE8.0 kmh SSE 8.0 mph12.9 kmh 29.61 in1002.7 mb 0.00 in0.0 mm 0.00 in0.0 mm 0.06 in1.5 mm
11:30 AM 77.7°F25.4°C 72.8°F22.7°C 85% 4.0 mph S6.4 kmh S 7.0 mph11.3 kmh 29.61 in1002.7 mb 0.00 in0.0 mm 0.00 in0.0 mm 0.06 in1.5 mm
11:20 AM 77.1°F25.1°C 72.2°F22.3°C 85% 5.0 mph S8.0 kmh S 9.0 mph14.5 kmh 29.61 in1002.7 mb 0.00 in0.0 mm 0.00 in0.0 mm 0.06 in1.5 mm
11:10 AM 76.1°F24.5°C 73.0°F22.8°C 90% 4.0 mph S6.4 kmh S 9.0 mph14.5 kmh 29.61 in1002.7 mb 0.00 in0.0 mm 0.00 in0.0 mm 0.06 in1.5 mm
11:00 AM 74.5°F23.6°C 72.7°F22.6°C 94% 3.0 mph S4.8 kmh S 6.0 mph9.7 kmh 29.61 in1002.7 mb 0.00 in0.0 mm 0.00 in0.0 mm 0.06 in1.5 mm
10:50 AM 73.5°F23.1°C 71.7°F22.1°C 94% 3.0 mph S4.8 kmh S 5.0 mph8.0 kmh 29.62 in1003.0 mb 0.00 in0.0 mm 0.00 in0.0 mm 0.06 in1.5 mm
10:40 AM 72.8°F22.7°C 71.3°F21.8°C 95% 3.0 mph S4.8 kmh S 6.0 mph9.7 kmh 29.62 in1003.0 mb 0.00 in0.0 mm 0.00 in0.0 mm 0.06 in1.5 mm
10:30 AM 72.0°F22.2°C 70.5°F21.4°C 95% 3.0 mph S4.8 kmh S 6.0 mph9.7 kmh 29.62 in1003.0 mb 0.00 in0.0 mm 0.00 in0.0 mm 0.06 in1.5 mm
10:20 AM 71.7°F22.1°C 70.5°F21.4°C 96% 2.0 mph S3.2 kmh S 5.0 mph8.0 kmh 29.62 in1003.0 mb 0.00 in0.0 mm 0.00 in0.0 mm 0.06 in1.5 mm
10:10 AM 70.5°F21.4°C 69.3°F20.7°C 96% 2.0 mph SSE3.2 kmh SSE 5.0 mph8.0 kmh 29.62 in1003.0 mb 0.00 in0.0 mm 0.00 in0.0 mm 0.06 in1.5 mm
10:00 AM 69.5°F20.8°C 68.3°F20.2°C 96% 1.0 mph SSE1.6 kmh SSE 3.0 mph4.8 kmh 29.62 in1003.0 mb 0.00 in0.0 mm 0.00 in0.0 mm 0.06 in1.5 mm
09:50 AM 68.6°F20.3°C 67.4°F19.7°C 96% 2.0 mph S3.2 kmh S 4.0 mph6.4 kmh 29.62 in1003.0 mb 0.00 in0.0 mm 0.00 in0.0 mm 0.06 in1.5 mm
09:40 AM 67.8°F19.9°C 66.6°F19.2°C 96% 1.0 mph S1.6 kmh S 3.0 mph4.8 kmh 29.61 in1002.7 mb 0.00 in0.0 mm 0.00 in0.0 mm 0.06 in1.5 mm
09:30 AM 67.2°F19.6°C 66.0°F18.9°C 96% 1.0 mph SSE1.6 kmh SSE 3.0 mph4.8 kmh 29.62 in1003.0 mb 0.00 in0.0 mm 0.00 in0.0 mm 0.06 in1.5 mm
09:20 AM 66.9°F19.4°C 65.7°F18.7°C 96% Calm Calm -- 29.62 in1003.0 mb 0.01 in0.3 mm 0.00 in0.0 mm 0.06 in1.5 mm
09:10 AM 66.3°F19.1°C 65.1°F18.4°C 96% Calm Calm -- 29.63 in1003.4 mb 0.02 in0.5 mm 0.00 in0.0 mm 0.06 in1.5 mm
09:00 AM 66.2°F19.0°C 65.0°F18.3°C 96% Calm Calm -- 29.63 in1003.4 mb 0.03 in0.8 mm 0.00 in0.0 mm 0.06 in1.5 mm
08:50 AM 65.9°F18.8°C 64.7°F18.2°C 96% Calm Calm -- 29.62 in1003.0 mb 0.04 in1.0 mm 0.00 in0.0 mm 0.06 in1.5 mm
08:40 AM 65.7°F18.7°C 64.5°F18.1°C 96% Calm Calm -- 29.62 in1003.0 mb 0.05 in1.3 mm 0.00 in0.0 mm 0.06 in1.5 mm
08:30 AM 65.4°F18.6°C 63.9°F17.7°C 95% Calm Calm -- 29.63 in1003.4 mb 0.05 in1.3 mm 0.06 in1.5 mm 0.06 in1.5 mm
08:20 AM 65.0°F18.3°C 63.8°F17.7°C 96% Calm Calm -- 29.63 in1003.4 mb 0.04 in1.0 mm 0.00 in0.0 mm 0.05 in1.3 mm
08:10 AM 64.9°F18.3°C 63.7°F17.6°C 96% Calm Calm -- 29.64 in1003.7 mb 0.04 in1.0 mm 0.06 in1.5 mm 0.04 in1.0 mm
08:00 AM 65.1°F18.4°C 63.6°F17.6°C 95% Calm Calm -- 29.64 in1003.7 mb 0.03 in0.8 mm 0.01 in0.3 mm 0.03 in0.8 mm
07:50 AM 64.9°F18.3°C 63.4°F17.4°C 95% Calm Calm -- 29.64 in1003.7 mb 0.02 in0.5 mm 0.06 in1.5 mm 0.02 in0.5 mm
07:40 AM 64.8°F18.2°C 63.3°F17.4°C 95% Calm Calm -- 29.65 in1004.1 mb 0.01 in0.3 mm 0.00 in0.0 mm 0.01 in0.3 mm
07:30 AM 64.7°F18.2°C 63.2°F17.3°C 95% Calm Calm -- 29.66 in1004.4 mb 0.01 in0.3 mm 0.00 in0.0 mm 0.01 in0.3 mm
07:20 AM 64.7°F18.2°C 63.2°F17.3°C 95% Calm Calm -- 29.66 in1004.4 mb 0.01 in0.3 mm 0.06 in1.5 mm 0.01 in0.3 mm
07:10 AM 64.5°F18.1°C 63.0°F17.2°C 95% Calm Calm -- 29.65 in1004.1 mb 0.00 in0.0 mm 0.00 in0.0 mm 0.00 in0.0 mm
07:00 AM 64.2°F17.9°C 62.7°F17.1°C 95% Calm Calm 2.0 mph3.2 kmh 29.65 in1004.1 mb 0.00 in0.0 mm 0.00 in0.0 mm 0.00 in0.0 mm
06:50 AM 63.7°F17.6°C 62.2°F16.8°C 95% Calm Calm -- 29.63 in1003.4 mb 0.00 in0.0 mm 0.00 in0.0 mm 0.00 in0.0 mm
06:40 AM 64.1°F17.8°C 62.6°F17.0°C 95% Calm Calm -- 29.63 in1003.4 mb 0.00 in0.0 mm 0.00 in0.0 mm 0.00 in0.0 mm
06:30 AM 63.9°F17.7°C 62.4°F16.9°C 95% Calm Calm -- 29.64 in1003.7 mb 0.00 in0.0 mm 0.00 in0.0 mm 0.00 in0.0 mm
06:20 AM 63.5°F17.5°C 62.0°F16.7°C 95% Calm Calm -- 29.64 in1003.7 mb 0.00 in0.0 mm 0.00 in0.0 mm 0.00 in0.0 mm
06:10 AM 63.4°F17.4°C 61.9°F16.6°C 95% Calm Calm 1.0 mph1.6 kmh 29.65 in1004.1 mb 0.00 in0.0 mm 0.00 in0.0 mm 0.00 in0.0 mm
06:00 AM 63.0°F17.2°C 61.5°F16.4°C 95% Calm Calm -- 29.66 in1004.4 mb 0.00 in0.0 mm 0.00 in0.0 mm 0.00 in0.0 mm
05:50 AM 62.6°F17.0°C 61.1°F16.2°C 95% Calm Calm -- 29.66 in1004.4 mb 0.00 in0.0 mm 0.00 in0.0 mm 0.00 in0.0 mm
05:40 AM 62.5°F16.9°C 61.0°F16.1°C 95% Calm Calm 1.0 mph1.6 kmh 29.66 in1004.4 mb 0.00 in0.0 mm 0.00 in0.0 mm 0.00 in0.0 mm
05:30 AM 62.5°F16.9°C 61.0°F16.1°C 95% Calm Calm 1.0 mph1.6 kmh 29.65 in1004.1 mb 0.00 in0.0 mm 0.00 in0.0 mm 0.00 in0.0 mm
05:20 AM 62.5°F16.9°C 61.0°F16.1°C 95% Calm Calm 2.0 mph3.2 kmh 29.65 in1004.1 mb 0.00 in0.0 mm 0.00 in0.0 mm 0.00 in0.0 mm
05:10 AM 62.4°F16.9°C 60.9°F16.1°C 95% Calm Calm 1.0 mph1.6 kmh 29.64 in1003.7 mb 0.00 in0.0 mm 0.00 in0.0 mm 0.00 in0.0 mm
05:00 AM 62.2°F16.8°C 60.8°F16.0°C 95% Calm Calm -- 29.63 in1003.4 mb 0.00 in0.0 mm 0.00 in0.0 mm 0.00 in0.0 mm
04:50 AM 62.2°F16.8°C 60.8°F16.0°C 95% Calm Calm 1.0 mph1.6 kmh 29.63 in1003.4 mb 0.00 in0.0 mm 0.00 in0.0 mm 0.00 in0.0 mm
04:40 AM 62.0°F16.7°C 60.6°F15.9°C 95% Calm Calm 1.0 mph1.6 kmh 29.63 in1003.4 mb 0.00 in0.0 mm 0.00 in0.0 mm 0.00 in0.0 mm
04:30 AM 61.9°F16.6°C 60.5°F15.8°C 95% Calm Calm 3.0 mph4.8 kmh 29.64 in1003.7 mb 0.00 in0.0 mm 0.00 in0.0 mm 0.00 in0.0 mm
04:20 AM 61.7°F16.5°C 60.3°F15.7°C 95% 1.0 mph SSE1.6 kmh SSE 3.0 mph4.8 kmh 29.65 in1004.1 mb 0.00 in0.0 mm 0.00 in0.0 mm 0.00 in0.0 mm
04:10 AM 61.4°F16.3°C 60.0°F15.6°C 95% 1.0 mph SSE1.6 kmh SSE 3.0 mph4.8 kmh 29.66 in1004.4 mb 0.00 in0.0 mm 0.00 in0.0 mm 0.00 in0.0 mm
04:00 AM 61.1°F16.2°C 59.7°F15.4°C 95% 2.0 mph S3.2 kmh S 5.0 mph8.0 kmh 29.66 in1004.4 mb 0.00 in0.0 mm 0.00 in0.0 mm 0.00 in0.0 mm
03:50 AM 61.1°F16.2°C 59.7°F15.4°C 95% 1.0 mph S1.6 kmh S 3.0 mph4.8 kmh 29.65 in1004.1 mb 0.00 in0.0 mm 0.00 in0.0 mm 0.00 in0.0 mm
03:40 AM 60.9°F16.1°C 59.5°F15.3°C 95% Calm Calm 2.0 mph3.2 kmh 29.65 in1004.1 mb 0.00 in0.0 mm 0.00 in0.0 mm 0.00 in0.0 mm
03:30 AM 60.7°F15.9°C 59.3°F15.2°C 95% Calm Calm -- 29.64 in1003.7 mb 0.00 in0.0 mm 0.00 in0.0 mm 0.00 in0.0 mm
03:20 AM 60.5°F15.8°C 59.1°F15.1°C 95% Calm Calm -- 29.65 in1004.1 mb 0.00 in0.0 mm 0.00 in0.0 mm 0.00 in0.0 mm
03:10 AM 60.6°F15.9°C 59.2°F15.1°C 95% Calm Calm -- 29.65 in1004.1 mb 0.00 in0.0 mm 0.00 in0.0 mm 0.00 in0.0 mm
03:00 AM 60.8°F16.0°C 59.4°F15.2°C 95% Calm Calm -- 29.64 in1003.7 mb 0.00 in0.0 mm 0.00 in0.0 mm 0.00 in0.0 mm
02:50 AM 61.1°F16.2°C 59.7°F15.4°C 95% Calm Calm -- 29.65 in1004.1 mb 0.00 in0.0 mm 0.00 in0.0 mm 0.00 in0.0 mm
02:40 AM 61.2°F16.2°C 59.8°F15.4°C 95% Calm Calm -- 29.64 in1003.7 mb 0.00 in0.0 mm 0.00 in0.0 mm 0.00 in0.0 mm
02:30 AM 61.1°F16.2°C 59.7°F15.4°C 95% Calm Calm -- 29.65 in1004.1 mb 0.00 in0.0 mm 0.00 in0.0 mm 0.00 in0.0 mm
02:20 AM 61.0°F16.1°C 59.6°F15.3°C 95% Calm Calm 2.0 mph3.2 kmh 29.66 in1004.4 mb 0.00 in0.0 mm 0.00 in0.0 mm 0.00 in0.0 mm
02:10 AM 61.0°F16.1°C 59.6°F15.3°C 95% 1.0 mph S1.6 kmh S 2.0 mph3.2 kmh 29.68 in1005.1 mb 0.00 in0.0 mm 0.00 in0.0 mm 0.00 in0.0 mm
02:00 AM 60.9°F16.1°C 59.5°F15.3°C 95% Calm Calm 1.0 mph1.6 kmh 29.67 in1004.7 mb 0.00 in0.0 mm 0.00 in0.0 mm 0.00 in0.0 mm
01:50 AM 61.1°F16.2°C 59.7°F15.4°C 95% Calm Calm 2.0 mph3.2 kmh 29.67 in1004.7 mb 0.00 in0.0 mm 0.00 in0.0 mm 0.00 in0.0 mm
01:40 AM 61.3°F16.3°C 59.9°F15.5°C 95% Calm Calm 1.0 mph1.6 kmh 29.66 in1004.4 mb 0.00 in0.0 mm 0.00 in0.0 mm 0.00 in0.0 mm
01:30 AM 61.5°F16.4°C 60.1°F15.6°C 95% 1.0 mph SSE1.6 kmh SSE 2.0 mph3.2 kmh 29.66 in1004.4 mb 0.00 in0.0 mm 0.00 in0.0 mm 0.00 in0.0 mm
01:20 AM 61.5°F16.4°C 60.1°F15.6°C 95% Calm Calm 2.0 mph3.2 kmh 29.66 in1004.4 mb 0.00 in0.0 mm 0.00 in0.0 mm 0.00 in0.0 mm
01:10 AM 61.6°F16.4°C 60.2°F15.7°C 95% 1.0 mph S1.6 kmh S 2.0 mph3.2 kmh 29.66 in1004.4 mb 0.00 in0.0 mm 0.00 in0.0 mm 0.00 in0.0 mm
01:00 AM 61.9°F16.6°C 60.5°F15.8°C 95% 1.0 mph SSE1.6 kmh SSE 3.0 mph4.8 kmh 29.67 in1004.7 mb 0.00 in0.0 mm 0.00 in0.0 mm 0.00 in0.0 mm
12:50 AM 61.8°F16.6°C 60.4°F15.8°C 95% Calm Calm 2.0 mph3.2 kmh 29.67 in1004.7 mb 0.00 in0.0 mm 0.00 in0.0 mm 0.00 in0.0 mm
12:40 AM 61.8°F16.6°C 60.4°F15.8°C 95% 1.0 mph S1.6 kmh S 2.0 mph3.2 kmh 29.68 in1005.1 mb 0.00 in0.0 mm 0.00 in0.0 mm 0.00 in0.0 mm
12:30 AM 61.9°F16.6°C 60.5°F15.8°C 95% 1.0 mph S1.6 kmh S 3.0 mph4.8 kmh 29.69 in1005.4 mb 0.00 in0.0 mm 0.00 in0.0 mm 0.00 in0.0 mm
12:20 AM 62.0°F16.7°C 60.6°F15.9°C 95% 1.0 mph S1.6 kmh S 2.0 mph3.2 kmh 29.68 in1005.1 mb 0.00 in0.0 mm 0.00 in0.0 mm 0.00 in0.0 mm
12:10 AM 61.9°F16.6°C 60.5°F15.8°C 95% 1.0 mph SSW1.6 kmh SSW 2.0 mph3.2 kmh 29.68 in1005.1 mb 0.00 in0.0 mm 0.00 in0.0 mm 0.00 in0.0 mm
12:00 AM 61.9°F16.6°C 60.5°F15.8°C 95% 1.0 mph S1.6 kmh S 2.0 mph3.2 kmh 29.69 in1005.4 mb 0.00 in0.0 mm 0.00 in0.0 mm 0.20 in5.1 mm